sensor_id;sensor_type;location;lat;lon;timestamp;P1;durP1;ratioP1;P2;durP2;ratioP2
55672;SDS011;41554;45.366;20.400;2022-10-22T00:02:07;25.92;;;6.50;;
55672;SDS011;41554;45.366;20.400;2022-10-22T00:04:34;10.65;;;6.22;;
55672;SDS011;41554;45.366;20.400;2022-10-22T00:07:00;12.70;;;6.68;;
55672;SDS011;41554;45.366;20.400;2022-10-22T00:09:26;18.02;;;6.82;;
55672;SDS011;41554;45.366;20.400;2022-10-22T00:11:52;12.15;;;7.28;;
55672;SDS011;41554;45.366;20.400;2022-10-22T00:14:18;9.30;;;6.60;;
55672;SDS011;41554;45.366;20.400;2022-10-22T00:16:44;27.27;;;7.32;;
55672;SDS011;41554;45.366;20.400;2022-10-22T00:19:10;9.20;;;5.20;;
55672;SDS011;41554;45.366;20.400;2022-10-22T00:21:37;16.20;;;7.78;;
55672;SDS011;41554;45.366;20.400;2022-10-22T00:24:03;12.07;;;6.10;;
55672;SDS011;41554;45.366;20.400;2022-10-22T00:26:29;7.78;;;4.93;;
55672;SDS011;41554;45.366;20.400;2022-10-22T00:28:55;9.48;;;6.93;;
55672;SDS011;41554;45.366;20.400;2022-10-22T00:31:21;11.43;;;5.75;;
55672;SDS011;41554;45.366;20.400;2022-10-22T00:33:48;8.18;;;6.35;;
55672;SDS011;41554;45.366;20.400;2022-10-22T00:36:14;12.35;;;6.28;;
55672;SDS011;41554;45.366;20.400;2022-10-22T00:38:41;10.65;;;7.18;;
55672;SDS011;41554;45.366;20.400;2022-10-22T00:41:07;17.60;;;6.15;;
55672;SDS011;41554;45.366;20.400;2022-10-22T00:43:33;20.27;;;5.85;;
55672;SDS011;41554;45.366;20.400;2022-10-22T00:45:59;20.35;;;6.38;;
55672;SDS011;41554;45.366;20.400;2022-10-22T00:48:28;15.55;;;6.65;;
55672;SDS011;41554;45.366;20.400;2022-10-22T00:53:37;22.08;;;5.90;;
55672;SDS011;41554;45.366;20.400;2022-10-22T00:56:04;10.25;;;6.05;;
55672;SDS011;41554;45.366;20.400;2022-10-22T00:58:32;11.10;;;6.82;;
55672;SDS011;41554;45.366;20.400;2022-10-22T01:01:00;9.55;;;5.45;;
55672;SDS011;41554;45.366;20.400;2022-10-22T01:03:26;6.13;;;4.88;;
55672;SDS011;41554;45.366;20.400;2022-10-22T01:08:40;6.90;;;4.93;;
55672;SDS011;41554;45.366;20.400;2022-10-22T01:13:46;7.75;;;5.45;;
55672;SDS011;41554;45.366;20.400;2022-10-22T01:16:18;13.25;;;7.10;;
55672;SDS011;41554;45.366;20.400;2022-10-22T01:18:58;8.38;;;5.65;;
55672;SDS011;41554;45.366;20.400;2022-10-22T01:29:03;9.88;;;6.07;;
55672;SDS011;41554;45.366;20.400;2022-10-22T01:31:33;9.95;;;7.28;;
55672;SDS011;41554;45.366;20.400;2022-10-22T01:34:00;8.27;;;6.30;;
55672;SDS011;41554;45.366;20.400;2022-10-22T01:36:30;12.65;;;5.85;;
55672;SDS011;41554;45.366;20.400;2022-10-22T01:38:57;7.32;;;5.05;;
55672;SDS011;41554;45.366;20.400;2022-10-22T01:41:27;13.45;;;6.70;;
55672;SDS011;41554;45.366;20.400;2022-10-22T01:43:53;7.95;;;5.55;;
55672;SDS011;41554;45.366;20.400;2022-10-22T01:46:20;20.73;;;6.53;;
55672;SDS011;41554;45.366;20.400;2022-10-22T02:01:17;26.15;;;6.82;;
55672;SDS011;41554;45.366;20.400;2022-10-22T02:03:55;12.18;;;6.68;;
55672;SDS011;41554;45.366;20.400;2022-10-22T02:08:51;11.07;;;8.48;;
55672;SDS011;41554;45.366;20.400;2022-10-22T02:11:17;15.27;;;6.80;;
55672;SDS011;41554;45.366;20.400;2022-10-22T02:13:48;10.10;;;6.30;;
55672;SDS011;41554;45.366;20.400;2022-10-22T02:16:17;12.07;;;6.35;;
55672;SDS011;41554;45.366;20.400;2022-10-22T02:18:44;8.75;;;6.25;;
55672;SDS011;41554;45.366;20.400;2022-10-22T02:21:11;10.02;;;6.65;;
55672;SDS011;41554;45.366;20.400;2022-10-22T02:23:37;11.32;;;6.47;;
55672;SDS011;41554;45.366;20.400;2022-10-22T02:26:10;10.10;;;6.65;;
55672;SDS011;41554;45.366;20.400;2022-10-22T02:29:02;14.45;;;6.78;;
55672;SDS011;41554;45.366;20.400;2022-10-22T02:31:29;10.63;;;6.55;;
55672;SDS011;41554;45.366;20.400;2022-10-22T02:36:22;11.45;;;6.18;;
55672;SDS011;41554;45.366;20.400;2022-10-22T02:38:48;9.40;;;7.05;;
55672;SDS011;41554;45.366;20.400;2022-10-22T02:41:15;9.30;;;4.82;;
55672;SDS011;41554;45.366;20.400;2022-10-22T02:43:43;10.23;;;5.18;;
55672;SDS011;41554;45.366;20.400;2022-10-22T02:46:09;9.43;;;5.82;;
55672;SDS011;41554;45.366;20.400;2022-10-22T02:48:36;9.60;;;5.63;;
55672;SDS011;41554;45.366;20.400;2022-10-22T02:51:02;8.55;;;5.57;;
55672;SDS011;41554;45.366;20.400;2022-10-22T02:53:28;12.15;;;6.75;;
55672;SDS011;41554;45.366;20.400;2022-10-22T02:55:54;19.73;;;8.88;;
55672;SDS011;41554;45.366;20.400;2022-10-22T02:58:20;6.85;;;5.60;;
55672;SDS011;41554;45.366;20.400;2022-10-22T03:00:47;9.77;;;6.97;;
55672;SDS011;41554;45.366;20.400;2022-10-22T03:03:13;13.32;;;7.80;;
55672;SDS011;41554;45.366;20.400;2022-10-22T03:05:39;8.30;;;6.47;;
55672;SDS011;41554;45.366;20.400;2022-10-22T03:08:05;8.65;;;6.80;;
55672;SDS011;41554;45.366;20.400;2022-10-22T03:10:31;17.55;;;7.88;;
55672;SDS011;41554;45.366;20.400;2022-10-22T03:12:57;14.18;;;7.32;;
55672;SDS011;41554;45.366;20.400;2022-10-22T03:15:23;12.07;;;7.43;;
55672;SDS011;41554;45.366;20.400;2022-10-22T03:17:49;15.45;;;6.55;;
55672;SDS011;41554;45.366;20.400;2022-10-22T03:20:15;12.65;;;7.50;;
55672;SDS011;41554;45.366;20.400;2022-10-22T03:22:41;11.40;;;6.28;;
55672;SDS011;41554;45.366;20.400;2022-10-22T03:25:12;9.23;;;5.85;;
55672;SDS011;41554;45.366;20.400;2022-10-22T03:27:39;14.73;;;8.50;;
55672;SDS011;41554;45.366;20.400;2022-10-22T03:30:07;8.30;;;5.70;;
55672;SDS011;41554;45.366;20.400;2022-10-22T03:32:33;8.40;;;5.60;;
55672;SDS011;41554;45.366;20.400;2022-10-22T03:34:59;13.00;;;6.25;;
55672;SDS011;41554;45.366;20.400;2022-10-22T03:37:25;9.48;;;6.63;;
55672;SDS011;41554;45.366;20.400;2022-10-22T03:39:52;8.60;;;6.50;;
55672;SDS011;41554;45.366;20.400;2022-10-22T03:42:18;11.82;;;6.13;;
55672;SDS011;41554;45.366;20.400;2022-10-22T03:44:45;11.50;;;7.40;;
55672;SDS011;41554;45.366;20.400;2022-10-22T03:47:11;10.82;;;6.28;;
55672;SDS011;41554;45.366;20.400;2022-10-22T03:49:37;13.15;;;7.68;;
55672;SDS011;41554;45.366;20.400;2022-10-22T03:52:06;9.40;;;5.90;;
55672;SDS011;41554;45.366;20.400;2022-10-22T03:54:33;6.18;;;5.00;;
55672;SDS011;41554;45.366;20.400;2022-10-22T03:56:59;9.23;;;6.35;;
55672;SDS011;41554;45.366;20.400;2022-10-22T03:59:25;17.45;;;7.63;;
55672;SDS011;41554;45.366;20.400;2022-10-22T04:01:52;9.43;;;6.47;;
55672;SDS011;41554;45.366;20.400;2022-10-22T04:04:18;8.57;;;5.85;;
55672;SDS011;41554;45.366;20.400;2022-10-22T04:06:44;11.75;;;7.38;;
55672;SDS011;41554;45.366;20.400;2022-10-22T04:09:10;15.15;;;7.82;;
55672;SDS011;41554;45.366;20.400;2022-10-22T04:11:36;15.77;;;8.30;;
55672;SDS011;41554;45.366;20.400;2022-10-22T04:14:02;9.80;;;7.30;;
55672;SDS011;41554;45.366;20.400;2022-10-22T04:16:28;14.18;;;6.30;;
55672;SDS011;41554;45.366;20.400;2022-10-22T04:18:56;11.02;;;8.43;;
55672;SDS011;41554;45.366;20.400;2022-10-22T04:21:22;12.48;;;8.13;;
55672;SDS011;41554;45.366;20.400;2022-10-22T04:23:49;7.50;;;5.60;;
55672;SDS011;41554;45.366;20.400;2022-10-22T04:26:16;16.17;;;7.55;;
55672;SDS011;41554;45.366;20.400;2022-10-22T04:28:43;17.13;;;6.95;;
55672;SDS011;41554;45.366;20.400;2022-10-22T04:31:10;14.25;;;6.75;;
55672;SDS011;41554;45.366;20.400;2022-10-22T04:33:36;14.55;;;7.80;;
55672;SDS011;41554;45.366;20.400;2022-10-22T04:36:07;9.25;;;5.60;;
55672;SDS011;41554;45.366;20.400;2022-10-22T04:38:33;16.45;;;6.40;;
55672;SDS011;41554;45.366;20.400;2022-10-22T04:41:09;12.07;;;6.80;;
55672;SDS011;41554;45.366;20.400;2022-10-22T04:43:35;12.40;;;6.78;;
55672;SDS011;41554;45.366;20.400;2022-10-22T04:46:01;8.25;;;6.40;;
55672;SDS011;41554;45.366;20.400;2022-10-22T04:48:27;11.38;;;7.43;;
55672;SDS011;41554;45.366;20.400;2022-10-22T04:50:55;17.38;;;8.40;;
55672;SDS011;41554;45.366;20.400;2022-10-22T04:53:21;9.32;;;6.80;;
55672;SDS011;41554;45.366;20.400;2022-10-22T04:55:47;6.28;;;4.97;;
55672;SDS011;41554;45.366;20.400;2022-10-22T04:58:13;13.05;;;7.85;;
55672;SDS011;41554;45.366;20.400;2022-10-22T05:00:39;10.82;;;7.78;;
55672;SDS011;41554;45.366;20.400;2022-10-22T05:03:05;22.13;;;9.88;;
55672;SDS011;41554;45.366;20.400;2022-10-22T05:05:31;10.52;;;7.07;;
55672;SDS011;41554;45.366;20.400;2022-10-22T05:07:57;9.93;;;7.50;;
55672;SDS011;41554;45.366;20.400;2022-10-22T05:10:23;24.48;;;6.22;;
55672;SDS011;41554;45.366;20.400;2022-10-22T05:12:50;10.00;;;6.20;;
55672;SDS011;41554;45.366;20.400;2022-10-22T05:15:16;13.45;;;9.07;;
55672;SDS011;41554;45.366;20.400;2022-10-22T05:17:42;14.77;;;7.35;;
55672;SDS011;41554;45.366;20.400;2022-10-22T05:20:08;20.33;;;8.00;;
55672;SDS011;41554;45.366;20.400;2022-10-22T05:22:34;21.05;;;10.02;;
55672;SDS011;41554;45.366;20.400;2022-10-22T05:25:00;11.00;;;6.50;;
55672;SDS011;41554;45.366;20.400;2022-10-22T05:27:26;9.70;;;7.20;;
55672;SDS011;41554;45.366;20.400;2022-10-22T05:29:52;13.27;;;6.68;;
55672;SDS011;41554;45.366;20.400;2022-10-22T05:32:18;9.57;;;6.63;;
55672;SDS011;41554;45.366;20.400;2022-10-22T05:34:44;13.00;;;8.15;;
55672;SDS011;41554;45.366;20.400;2022-10-22T05:37:10;17.25;;;6.13;;
55672;SDS011;41554;45.366;20.400;2022-10-22T05:39:36;17.08;;;8.30;;
55672;SDS011;41554;45.366;20.400;2022-10-22T05:42:04;8.15;;;6.28;;
55672;SDS011;41554;45.366;20.400;2022-10-22T05:44:30;10.25;;;7.72;;
55672;SDS011;41554;45.366;20.400;2022-10-22T05:46:56;11.98;;;8.68;;
55672;SDS011;41554;45.366;20.400;2022-10-22T05:49:23;20.23;;;8.07;;
55672;SDS011;41554;45.366;20.400;2022-10-22T05:51:49;15.82;;;6.43;;
55672;SDS011;41554;45.366;20.400;2022-10-22T05:54:16;10.43;;;6.75;;
55672;SDS011;41554;45.366;20.400;2022-10-22T05:56:42;10.23;;;7.07;;
55672;SDS011;41554;45.366;20.400;2022-10-22T05:59:09;9.88;;;7.10;;
55672;SDS011;41554;45.366;20.400;2022-10-22T06:01:35;11.57;;;8.18;;
55672;SDS011;41554;45.366;20.400;2022-10-22T06:04:03;12.15;;;8.88;;
55672;SDS011;41554;45.366;20.400;2022-10-22T06:06:33;13.55;;;8.52;;
55672;SDS011;41554;45.366;20.400;2022-10-22T06:11:46;11.00;;;7.07;;
55672;SDS011;41554;45.366;20.400;2022-10-22T06:14:12;14.18;;;8.70;;
55672;SDS011;41554;45.366;20.400;2022-10-22T06:16:38;10.60;;;7.40;;
55672;SDS011;41554;45.366;20.400;2022-10-22T06:19:04;12.63;;;9.82;;
55672;SDS011;41554;45.366;20.400;2022-10-22T06:21:31;21.75;;;8.68;;
55672;SDS011;41554;45.366;20.400;2022-10-22T06:23:57;12.30;;;7.90;;
55672;SDS011;41554;45.366;20.400;2022-10-22T06:26:24;15.68;;;9.93;;
55672;SDS011;41554;45.366;20.400;2022-10-22T06:28:50;25.95;;;10.82;;
55672;SDS011;41554;45.366;20.400;2022-10-22T06:31:16;19.48;;;8.77;;
55672;SDS011;41554;45.366;20.400;2022-10-22T06:33:42;11.15;;;7.72;;
55672;SDS011;41554;45.366;20.400;2022-10-22T06:36:09;14.57;;;9.50;;
55672;SDS011;41554;45.366;20.400;2022-10-22T06:38:36;16.35;;;7.45;;
55672;SDS011;41554;45.366;20.400;2022-10-22T06:41:06;20.48;;;7.93;;
55672;SDS011;41554;45.366;20.400;2022-10-22T06:43:32;24.05;;;9.07;;
55672;SDS011;41554;45.366;20.400;2022-10-22T06:46:02;10.50;;;7.20;;
55672;SDS011;41554;45.366;20.400;2022-10-22T06:48:29;12.38;;;10.27;;
55672;SDS011;41554;45.366;20.400;2022-10-22T06:50:55;13.25;;;8.23;;
55672;SDS011;41554;45.366;20.400;2022-10-22T06:53:21;25.02;;;9.40;;
55672;SDS011;41554;45.366;20.400;2022-10-22T06:55:47;16.67;;;8.43;;
55672;SDS011;41554;45.366;20.400;2022-10-22T06:58:13;19.00;;;9.10;;
55672;SDS011;41554;45.366;20.400;2022-10-22T07:00:39;8.35;;;6.97;;
55672;SDS011;41554;45.366;20.400;2022-10-22T07:03:06;18.58;;;8.05;;
55672;SDS011;41554;45.366;20.400;2022-10-22T07:05:32;17.40;;;7.65;;
55672;SDS011;41554;45.366;20.400;2022-10-22T07:07:58;13.45;;;8.57;;
55672;SDS011;41554;45.366;20.400;2022-10-22T07:10:24;21.17;;;8.88;;
55672;SDS011;41554;45.366;20.400;2022-10-22T07:12:50;16.17;;;8.15;;
55672;SDS011;41554;45.366;20.400;2022-10-22T07:15:16;9.70;;;7.40;;
55672;SDS011;41554;45.366;20.400;2022-10-22T07:17:42;10.82;;;7.28;;
55672;SDS011;41554;45.366;20.400;2022-10-22T07:20:09;11.82;;;7.95;;
55672;SDS011;41554;45.366;20.400;2022-10-22T07:22:36;26.55;;;9.30;;
55672;SDS011;41554;45.366;20.400;2022-10-22T07:25:02;16.52;;;8.55;;
55672;SDS011;41554;45.366;20.400;2022-10-22T07:27:28;24.63;;;10.30;;
55672;SDS011;41554;45.366;20.400;2022-10-22T07:29:54;17.05;;;8.80;;
55672;SDS011;41554;45.366;20.400;2022-10-22T07:32:21;14.57;;;9.05;;
55672;SDS011;41554;45.366;20.400;2022-10-22T07:34:47;21.17;;;12.10;;
55672;SDS011;41554;45.366;20.400;2022-10-22T07:37:13;40.00;;;11.57;;
55672;SDS011;41554;45.366;20.400;2022-10-22T07:39:39;13.52;;;9.85;;
55672;SDS011;41554;45.366;20.400;2022-10-22T07:42:05;22.52;;;8.32;;
55672;SDS011;41554;45.366;20.400;2022-10-22T07:44:31;9.95;;;7.78;;
55672;SDS011;41554;45.366;20.400;2022-10-22T07:46:57;24.63;;;9.68;;
55672;SDS011;41554;45.366;20.400;2022-10-22T07:49:23;14.40;;;7.22;;
55672;SDS011;41554;45.366;20.400;2022-10-22T07:51:49;12.95;;;8.57;;
55672;SDS011;41554;45.366;20.400;2022-10-22T07:54:15;16.65;;;10.75;;
55672;SDS011;41554;45.366;20.400;2022-10-22T07:56:43;10.65;;;7.40;;
55672;SDS011;41554;45.366;20.400;2022-10-22T07:59:09;23.05;;;9.40;;
55672;SDS011;41554;45.366;20.400;2022-10-22T08:01:35;17.45;;;8.77;;
55672;SDS011;41554;45.366;20.400;2022-10-22T08:04:01;28.85;;;18.90;;
55672;SDS011;41554;45.366;20.400;2022-10-22T08:06:27;21.60;;;11.48;;
55672;SDS011;41554;45.366;20.400;2022-10-22T08:08:53;19.77;;;9.25;;
55672;SDS011;41554;45.366;20.400;2022-10-22T08:11:19;20.83;;;10.05;;
55672;SDS011;41554;45.366;20.400;2022-10-22T08:13:45;16.42;;;10.32;;
55672;SDS011;41554;45.366;20.400;2022-10-22T08:16:11;19.02;;;10.18;;
55672;SDS011;41554;45.366;20.400;2022-10-22T08:18:37;16.50;;;9.65;;
55672;SDS011;41554;45.366;20.400;2022-10-22T08:21:03;15.15;;;9.88;;
55672;SDS011;41554;45.366;20.400;2022-10-22T08:23:29;12.95;;;8.73;;
55672;SDS011;41554;45.366;20.400;2022-10-22T08:25:56;21.17;;;10.32;;
55672;SDS011;41554;45.366;20.400;2022-10-22T08:28:22;17.95;;;10.25;;
55672;SDS011;41554;45.366;20.400;2022-10-22T08:30:48;12.38;;;8.70;;
55672;SDS011;41554;45.366;20.400;2022-10-22T08:33:14;14.10;;;10.00;;
55672;SDS011;41554;45.366;20.400;2022-10-22T08:35:40;10.82;;;7.60;;
55672;SDS011;41554;45.366;20.400;2022-10-22T08:38:06;17.70;;;8.60;;
55672;SDS011;41554;45.366;20.400;2022-10-22T08:40:33;20.70;;;9.00;;
55672;SDS011;41554;45.366;20.400;2022-10-22T08:45:54;17.83;;;13.13;;
55672;SDS011;41554;45.366;20.400;2022-10-22T08:50:51;24.35;;;11.50;;
55672;SDS011;41554;45.366;20.400;2022-10-22T08:53:25;22.27;;;10.48;;
55672;SDS011;41554;45.366;20.400;2022-10-22T08:55:53;12.55;;;8.70;;
55672;SDS011;41554;45.366;20.400;2022-10-22T08:58:39;15.45;;;8.50;;
55672;SDS011;41554;45.366;20.400;2022-10-22T09:01:09;12.98;;;8.70;;
55672;SDS011;41554;45.366;20.400;2022-10-22T09:08:45;12.15;;;8.27;;
55672;SDS011;41554;45.366;20.400;2022-10-22T09:13:39;14.60;;;9.13;;
55672;SDS011;41554;45.366;20.400;2022-10-22T09:16:25;16.83;;;9.13;;
55672;SDS011;41554;45.366;20.400;2022-10-22T09:21:28;12.75;;;8.70;;
55672;SDS011;41554;45.366;20.400;2022-10-22T09:24:11;15.90;;;8.50;;
55672;SDS011;41554;45.366;20.400;2022-10-22T09:26:38;15.95;;;8.55;;
55672;SDS011;41554;45.366;20.400;2022-10-22T09:29:06;17.58;;;8.57;;
55672;SDS011;41554;45.366;20.400;2022-10-22T09:31:32;19.88;;;8.63;;
55672;SDS011;41554;45.366;20.400;2022-10-22T09:33:59;9.57;;;6.53;;
55672;SDS011;41554;45.366;20.400;2022-10-22T09:36:30;13.45;;;8.73;;
55672;SDS011;41554;45.366;20.400;2022-10-22T09:38:56;15.85;;;8.05;;
55672;SDS011;41554;45.366;20.400;2022-10-22T09:41:24;10.80;;;7.60;;
55672;SDS011;41554;45.366;20.400;2022-10-22T09:43:50;15.60;;;8.60;;
55672;SDS011;41554;45.366;20.400;2022-10-22T09:46:18;11.13;;;7.32;;
55672;SDS011;41554;45.366;20.400;2022-10-22T09:48:49;10.13;;;8.15;;
55672;SDS011;41554;45.366;20.400;2022-10-22T09:51:21;10.80;;;7.28;;
55672;SDS011;41554;45.366;20.400;2022-10-22T09:53:57;17.13;;;9.52;;
55672;SDS011;41554;45.366;20.400;2022-10-22T09:58:50;10.50;;;7.38;;
55672;SDS011;41554;45.366;20.400;2022-10-22T10:01:18;12.05;;;8.60;;
55672;SDS011;41554;45.366;20.400;2022-10-22T10:03:44;19.08;;;8.90;;
55672;SDS011;41554;45.366;20.400;2022-10-22T10:06:15;15.07;;;10.07;;
55672;SDS011;41554;45.366;20.400;2022-10-22T10:08:42;10.13;;;6.75;;
55672;SDS011;41554;45.366;20.400;2022-10-22T10:17:09;13.90;;;7.63;;
55672;SDS011;41554;45.366;20.400;2022-10-22T10:37:34;24.17;;;8.65;;
55672;SDS011;41554;45.366;20.400;2022-10-22T10:42:40;16.23;;;9.40;;
55672;SDS011;41554;45.366;20.400;2022-10-22T10:45:16;17.60;;;8.52;;
55672;SDS011;41554;45.366;20.400;2022-10-22T10:47:53;14.65;;;9.77;;
55672;SDS011;41554;45.366;20.400;2022-10-22T10:50:26;19.88;;;7.82;;
55672;SDS011;41554;45.366;20.400;2022-10-22T10:55:29;15.63;;;8.90;;
55672;SDS011;41554;45.366;20.400;2022-10-22T11:00:23;18.17;;;7.55;;
55672;SDS011;41554;45.366;20.400;2022-10-22T11:05:31;14.55;;;8.02;;
55672;SDS011;41554;45.366;20.400;2022-10-22T11:08:02;9.23;;;6.13;;
55672;SDS011;41554;45.366;20.400;2022-10-22T11:13:07;15.35;;;7.70;;
55672;SDS011;41554;45.366;20.400;2022-10-22T11:15:36;16.95;;;9.35;;
55672;SDS011;41554;45.366;20.400;2022-10-22T11:18:07;13.15;;;7.68;;
55672;SDS011;41554;45.366;20.400;2022-10-22T11:20:43;17.13;;;7.50;;
55672;SDS011;41554;45.366;20.400;2022-10-22T11:26:01;14.23;;;8.45;;
55672;SDS011;41554;45.366;20.400;2022-10-22T11:28:37;16.83;;;6.30;;
55672;SDS011;41554;45.366;20.400;2022-10-22T11:31:14;11.50;;;8.25;;
55672;SDS011;41554;45.366;20.400;2022-10-22T11:36:27;9.48;;;7.97;;
55672;SDS011;41554;45.366;20.400;2022-10-22T11:38:54;20.33;;;8.00;;
55672;SDS011;41554;45.366;20.400;2022-10-22T11:41:23;16.80;;;7.18;;
55672;SDS011;41554;45.366;20.400;2022-10-22T11:44:04;13.25;;;8.55;;
55672;SDS011;41554;45.366;20.400;2022-10-22T11:46:43;17.27;;;9.25;;
55672;SDS011;41554;45.366;20.400;2022-10-22T11:51:40;15.82;;;8.38;;
55672;SDS011;41554;45.366;20.400;2022-10-22T11:56:51;21.40;;;8.50;;
55672;SDS011;41554;45.366;20.400;2022-10-22T12:07:55;16.30;;;8.02;;
55672;SDS011;41554;45.366;20.400;2022-10-22T12:10:28;16.48;;;7.85;;
55672;SDS011;41554;45.366;20.400;2022-10-22T12:12:55;23.60;;;9.15;;
55672;SDS011;41554;45.366;20.400;2022-10-22T12:15:23;16.75;;;8.10;;
55672;SDS011;41554;45.366;20.400;2022-10-22T12:17:55;11.55;;;8.20;;
55672;SDS011;41554;45.366;20.400;2022-10-22T12:20:22;14.63;;;8.77;;
55672;SDS011;41554;45.366;20.400;2022-10-22T12:22:50;9.55;;;7.18;;
55672;SDS011;41554;45.366;20.400;2022-10-22T12:25:23;14.68;;;7.95;;
55672;SDS011;41554;45.366;20.400;2022-10-22T12:27:56;23.33;;;10.00;;
55672;SDS011;41554;45.366;20.400;2022-10-22T12:30:30;18.00;;;9.35;;
55672;SDS011;41554;45.366;20.400;2022-10-22T12:32:58;14.95;;;7.90;;
55672;SDS011;41554;45.366;20.400;2022-10-22T12:35:26;16.27;;;9.57;;
55672;SDS011;41554;45.366;20.400;2022-10-22T12:37:56;26.73;;;11.02;;
55672;SDS011;41554;45.366;20.400;2022-10-22T12:40:27;17.02;;;9.65;;
55672;SDS011;41554;45.366;20.400;2022-10-22T12:45:20;13.73;;;9.27;;
55672;SDS011;41554;45.366;20.400;2022-10-22T12:47:50;12.95;;;7.90;;
55672;SDS011;41554;45.366;20.400;2022-10-22T12:52:43;22.05;;;10.68;;
55672;SDS011;41554;45.366;20.400;2022-10-22T12:55:13;17.83;;;8.63;;
55672;SDS011;41554;45.366;20.400;2022-10-22T12:57:40;35.80;;;11.00;;
55672;SDS011;41554;45.366;20.400;2022-10-22T13:00:17;23.02;;;10.85;;
55672;SDS011;41554;45.366;20.400;2022-10-22T13:02:44;15.50;;;8.93;;
55672;SDS011;41554;45.366;20.400;2022-10-22T13:05:20;30.95;;;12.15;;
55672;SDS011;41554;45.366;20.400;2022-10-22T13:07:50;17.20;;;8.95;;
55672;SDS011;41554;45.366;20.400;2022-10-22T13:10:24;13.48;;;8.23;;
55672;SDS011;41554;45.366;20.400;2022-10-22T13:12:55;10.63;;;8.98;;
55672;SDS011;41554;45.366;20.400;2022-10-22T13:17:47;13.55;;;10.35;;
55672;SDS011;41554;45.366;20.400;2022-10-22T13:20:18;17.63;;;10.80;;
55672;SDS011;41554;45.366;20.400;2022-10-22T13:22:52;12.75;;;9.90;;
55672;SDS011;41554;45.366;20.400;2022-10-22T13:25:20;21.65;;;9.27;;
55672;SDS011;41554;45.366;20.400;2022-10-22T13:27:51;15.88;;;10.25;;
55672;SDS011;41554;45.366;20.400;2022-10-22T13:30:22;14.15;;;10.07;;
55672;SDS011;41554;45.366;20.400;2022-10-22T13:32:53;20.40;;;11.90;;
55672;SDS011;41554;45.366;20.400;2022-10-22T13:35:20;22.50;;;10.02;;
55672;SDS011;41554;45.366;20.400;2022-10-22T13:37:47;25.50;;;11.73;;
55672;SDS011;41554;45.366;20.400;2022-10-22T13:40:14;18.60;;;11.77;;
55672;SDS011;41554;45.366;20.400;2022-10-22T13:42:40;14.68;;;10.18;;
55672;SDS011;41554;45.366;20.400;2022-10-22T13:45:06;23.55;;;11.73;;
55672;SDS011;41554;45.366;20.400;2022-10-22T13:47:32;21.85;;;12.40;;
55672;SDS011;41554;45.366;20.400;2022-10-22T13:49:59;40.30;;;14.93;;
55672;SDS011;41554;45.366;20.400;2022-10-22T13:52:37;23.38;;;14.23;;
55672;SDS011;41554;45.366;20.400;2022-10-22T13:55:15;32.53;;;13.98;;
55672;SDS011;41554;45.366;20.400;2022-10-22T13:57:41;25.23;;;12.07;;
55672;SDS011;41554;45.366;20.400;2022-10-22T14:00:10;26.65;;;10.10;;
55672;SDS011;41554;45.366;20.400;2022-10-22T14:02:36;23.83;;;10.88;;
55672;SDS011;41554;45.366;20.400;2022-10-22T14:05:02;16.48;;;10.20;;
55672;SDS011;41554;45.366;20.400;2022-10-22T14:09:58;16.42;;;11.32;;
55672;SDS011;41554;45.366;20.400;2022-10-22T14:12:24;25.77;;;16.48;;
55672;SDS011;41554;45.366;20.400;2022-10-22T14:14:52;23.65;;;14.90;;
55672;SDS011;41554;45.366;20.400;2022-10-22T14:17:18;25.05;;;14.02;;
55672;SDS011;41554;45.366;20.400;2022-10-22T14:19:45;18.38;;;11.70;;
55672;SDS011;41554;45.366;20.400;2022-10-22T14:22:12;16.92;;;11.98;;
55672;SDS011;41554;45.366;20.400;2022-10-22T14:24:39;19.17;;;12.68;;
55672;SDS011;41554;45.366;20.400;2022-10-22T14:27:05;34.38;;;15.52;;
55672;SDS011;41554;45.366;20.400;2022-10-22T14:29:31;25.67;;;16.67;;
55672;SDS011;41554;45.366;20.400;2022-10-22T14:31:57;22.67;;;13.32;;
55672;SDS011;41554;45.366;20.400;2022-10-22T14:34:23;32.53;;;14.20;;
55672;SDS011;41554;45.366;20.400;2022-10-22T14:36:49;31.63;;;16.27;;
55672;SDS011;41554;45.366;20.400;2022-10-22T14:39:15;25.95;;;16.60;;
55672;SDS011;41554;45.366;20.400;2022-10-22T14:41:42;26.00;;;15.75;;
55672;SDS011;41554;45.366;20.400;2022-10-22T14:44:12;18.55;;;13.13;;
55672;SDS011;41554;45.366;20.400;2022-10-22T14:46:38;32.22;;;15.10;;
55672;SDS011;41554;45.366;20.400;2022-10-22T14:49:06;29.48;;;17.48;;
55672;SDS011;41554;45.366;20.400;2022-10-22T14:51:32;35.42;;;17.35;;
55672;SDS011;41554;45.366;20.400;2022-10-22T14:53:58;42.55;;;19.08;;
55672;SDS011;41554;45.366;20.400;2022-10-22T14:56:24;43.47;;;18.58;;
55672;SDS011;41554;45.366;20.400;2022-10-22T14:58:51;33.75;;;18.88;;
55672;SDS011;41554;45.366;20.400;2022-10-22T15:01:17;33.75;;;18.42;;
55672;SDS011;41554;45.366;20.400;2022-10-22T15:03:43;34.85;;;16.33;;
55672;SDS011;41554;45.366;20.400;2022-10-22T15:06:10;52.50;;;22.42;;
55672;SDS011;41554;45.366;20.400;2022-10-22T15:08:36;51.83;;;24.27;;
55672;SDS011;41554;45.366;20.400;2022-10-22T15:11:07;40.70;;;20.38;;
55672;SDS011;41554;45.366;20.400;2022-10-22T15:13:33;37.42;;;17.90;;
55672;SDS011;41554;45.366;20.400;2022-10-22T15:16:00;30.77;;;18.17;;
55672;SDS011;41554;45.366;20.400;2022-10-22T15:18:26;29.83;;;18.67;;
55672;SDS011;41554;45.366;20.400;2022-10-22T15:20:53;27.02;;;19.02;;
55672;SDS011;41554;45.366;20.400;2022-10-22T15:23:20;32.90;;;19.67;;
55672;SDS011;41554;45.366;20.400;2022-10-22T15:25:46;25.00;;;16.15;;
55672;SDS011;41554;45.366;20.400;2022-10-22T15:28:12;28.20;;;18.98;;
55672;SDS011;41554;45.366;20.400;2022-10-22T15:30:38;33.72;;;17.80;;
55672;SDS011;41554;45.366;20.400;2022-10-22T15:33:04;36.78;;;21.50;;
55672;SDS011;41554;45.366;20.400;2022-10-22T15:35:30;46.60;;;20.80;;
55672;SDS011;41554;45.366;20.400;2022-10-22T15:37:56;30.13;;;19.35;;
55672;SDS011;41554;45.366;20.400;2022-10-22T15:40:22;31.60;;;19.10;;
55672;SDS011;41554;45.366;20.400;2022-10-22T15:42:48;42.38;;;22.92;;
55672;SDS011;41554;45.366;20.400;2022-10-22T15:45:14;63.92;;;27.05;;
55672;SDS011;41554;45.366;20.400;2022-10-22T15:47:44;59.63;;;34.83;;
55672;SDS011;41554;45.366;20.400;2022-10-22T15:50:10;114.45;;;60.28;;
55672;SDS011;41554;45.366;20.400;2022-10-22T15:52:36;93.70;;;50.75;;
55672;SDS011;41554;45.366;20.400;2022-10-22T15:55:02;78.00;;;44.60;;
55672;SDS011;41554;45.366;20.400;2022-10-22T15:57:31;53.50;;;29.85;;
55672;SDS011;41554;45.366;20.400;2022-10-22T15:59:57;43.20;;;26.25;;
55672;SDS011;41554;45.366;20.400;2022-10-22T16:02:23;50.35;;;25.60;;
55672;SDS011;41554;45.366;20.400;2022-10-22T16:04:49;46.83;;;21.00;;
55672;SDS011;41554;45.366;20.400;2022-10-22T16:07:15;34.97;;;20.05;;
55672;SDS011;41554;45.366;20.400;2022-10-22T16:09:41;41.72;;;21.95;;
55672;SDS011;41554;45.366;20.400;2022-10-22T16:12:07;43.78;;;21.40;;
55672;SDS011;41554;45.366;20.400;2022-10-22T16:14:33;34.83;;;19.90;;
55672;SDS011;41554;45.366;20.400;2022-10-22T16:16:59;42.00;;;21.13;;
55672;SDS011;41554;45.366;20.400;2022-10-22T16:19:25;46.67;;;22.25;;
55672;SDS011;41554;45.366;20.400;2022-10-22T16:21:52;35.20;;;20.02;;
55672;SDS011;41554;45.366;20.400;2022-10-22T16:24:19;33.97;;;23.90;;